AirNav   SIMCOM
 
 1130 users online  

98FL Sand Lake Seaplane Base
Orlando/Buena Vista, Florida, USA

GOING TO ORLANDO/BUENA VISTA?


FAA INFORMATION EFFECTIVE 20 JULY 2017

Location

FAA Identifier: 98FL
Lat/Long: 28-26-01.0220N / 081-29-29.2600W
28-26.017033N / 081-29.487667W
28.4336172 / -81.4914611
(estimated)
Elevation: 90 ft. / 27 m (estimated)
Variation: 03W (1985)
From city: 5 miles W of central business district of the associated city
Time zone: UTC -4 (UTC -5 during Standard Time)
Zip code: 32836

Seaplane Base Operations

Seaplane Base use: Private use, PERSONAL USE.
Activation date: 07/1990
Control tower: no
ARTCC: MIAMI CENTER
FSS: SAINT PETERSBURG FLIGHT SERVICE STATION
Attendance: UNATNDD
Segmented circle: no

Seaplane Base Communications

WX AWOS-3PT at ISM (9 nm S): 128.775 (407-847-0533)
WX ASOS at MCO (10 nm E): PHONE 407-855-5235
WX ASOS at ORL (11 nm NE): PHONE 407-658-6753

Nearby radio navigation aids

VOR radial/distance  VOR name  Freq  Var
ORLr232/10.5ORLANDO VORTAC112.2000E
LALr045/38.5LAKELAND VORTAC116.0001E

 
NDB name  Hdg/Dist  Freq  Var  ID
SANFORD217/24.840805WSFB ... ..-. -...
LEESBURG148/28.433504WLEE .-.. . .

Seaplane Base Services

Runway Information

Runway 18/36

Dimensions: 2000 x 500 ft. / 610 x 152 m
Surface: water
RUNWAY 18  RUNWAY 36
Traffic pattern: leftleft

Seaplane Base Ownership and Management from official FAA records

Ownership: Privately-owned
Owner: SCOTT & PATTY NOLEN
9000 OGILVIE DRIVE
ORLANDO, FL 32819
Phone (520) 906-3178
Manager: SCOTT & PATTY NOLEN
9000 OGILVIE DRIVE
ORLANDO, FL 32819
Phone (520) 906-3178

Seaplane Base Operational Statistics

Aircraft based on the field: 1
Single engine airplanes: 1
    

Instrument Procedures

There are no published instrument procedures at 98FL.

Some nearby airports with instrument procedures:

KISM - Kissimmee Gateway Airport (9 nm S)
KMCO - Orlando International Airport (10 nm E)
KORL - Executive Airport (11 nm NE)
X04 - Orlando Apopka Airport (17 nm N)
KSFB - Orlando Sanford International Airport (25 nm NE)
 
Loc | Ops | Rwys | IFR | FBO | Links
Com | Nav | Svcs | Stats | Notes


 
Area around 98FL (Sand Lake Seaplane Base)
 
Road maps at: MapQuest Bing Google
 
Aerial photo
No photo
 
Sectional chart

 
Airport distance calculator
Flying to Sand Lake Seaplane Base? Find the distance to fly.

From to 98FL

Sunrise and sunset
Times for 21-Jul-2017
 Local
(UTC-4)
 Zulu
(UTC)
Morning civil twilight06:1710:17
Sunrise06:4310:43
Sunset20:2200:22
Evening civil twilight20:4800:48

Current date and time
Zulu (UTC)  21-Jul-2017 22:15:16
Local (UTC-4)  21-Jul-2017 18:15:16
 
METAR
KMCO 
8nm E 
212153Z 21005KT 10SM -RA SCT055 BKN080 BKN130 23/23 A3002 RMK AO2 PRESFR SLP165 P0003 T02330228
KISM 
10nm S 
212156Z 00000KT 10SM -RA FEW038 SCT070 BKN095 24/23 A3004 RMK AO2 RAB02 SLP172 P0003 T02440228
KORL 
11nm NE 
212053Z 15008KT 10SM SCT038 25/23 A3008
TAF
KMCO 
8nm E 
211853Z 2119/2218 20007KT P6SM VCTS SCT030CB BKN100 BKN250 TEMPO 2119/2121 3SM TSRA BKN030CB BKN070 FM212300 VRB04KT P6SM VCSH SCT030 BKN080 BKN200 FM220100 VRB02KT P6SM FEW035 SCT100 BKN200 FM221400 20005KT P6SM SCT030
KISM 
10nm S 
211824Z 2118/2218 21006KT P6SM VCSH SCT035 BKN120 BKN250 TEMPO 2119/2121 VRB15G28KT 2SM +TSRA BKN030CB BKN070 FM212300 VRB04KT P6SM VCSH SCT030 BKN080 BKN200 FM220100 VRB02KT P6SM FEW035 SCT100 BKN200 FM221400 20005KT P6SM SCT030
NOTAMs
Click for the latest NOTAMs
NOTAMs are issued by the DoD/FAA and will open in a separate window not controlled by AirNav.

 

 
 

Would you like to see your business listed on this page?

 If your business provides an interesting product or service to pilots, flight crews, aircraft, or users of the Sand Lake Seaplane Base, you should consider listing it here.  To start the listing process, click on the button below
 
Add a business
 

Other Pages about Sand Lake Seaplane Base

Update a link
 
Copyright © AirNav, LLC. All rights reserved. Privacy Policy  Contact